sensor_id;sensor_type;location;lat;lon;timestamp;temperature;humidity
65207;SHT31;58477;48.072;11.970;2023-04-06T00:01:25;-1.93;82.15
65207;SHT31;58477;48.072;11.970;2023-04-06T00:03:50;-1.95;82.46
65207;SHT31;58477;48.072;11.970;2023-04-06T00:06:16;-2.01;82.43
65207;SHT31;58477;48.072;11.970;2023-04-06T00:08:41;-1.98;82.75
65207;SHT31;58477;48.072;11.970;2023-04-06T00:11:07;-2.15;82.61
65207;SHT31;58477;48.072;11.970;2023-04-06T00:13:32;-2.35;83.10
65207;SHT31;58477;48.072;11.970;2023-04-06T00:15:58;-2.44;83.17
65207;SHT31;58477;48.072;11.970;2023-04-06T00:18:23;-2.34;83.45
65207;SHT31;58477;48.072;11.970;2023-04-06T00:20:49;-2.33;83.12
65207;SHT31;58477;48.072;11.970;2023-04-06T00:23:16;-2.14;82.49
65207;SHT31;58477;48.072;11.970;2023-04-06T00:25:41;-1.97;82.19
65207;SHT31;58477;48.072;11.970;2023-04-06T00:28:07;-1.91;81.51
65207;SHT31;58477;48.072;11.970;2023-04-06T00:30:33;-1.69;81.70
65207;SHT31;58477;48.072;11.970;2023-04-06T00:32:58;-1.67;81.23
65207;SHT31;58477;48.072;11.970;2023-04-06T00:35:24;-1.74;81.13
65207;SHT31;58477;48.072;11.970;2023-04-06T00:37:49;-1.80;80.77
65207;SHT31;58477;48.072;11.970;2023-04-06T00:40:15;-1.77;81.64
65207;SHT31;58477;48.072;11.970;2023-04-06T00:42:41;-2.13;82.04
65207;SHT31;58477;48.072;11.970;2023-04-06T00:45:07;-2.24;82.72
65207;SHT31;58477;48.072;11.970;2023-04-06T00:47:32;-2.34;82.83
65207;SHT31;58477;48.072;11.970;2023-04-06T00:49:58;-2.28;82.91
65207;SHT31;58477;48.072;11.970;2023-04-06T00:52:23;-2.18;82.91
65207;SHT31;58477;48.072;11.970;2023-04-06T00:54:49;-2.21;83.19
65207;SHT31;58477;48.072;11.970;2023-04-06T00:57:17;-2.24;83.95
65207;SHT31;58477;48.072;11.970;2023-04-06T00:59:45;-2.37;84.15
65207;SHT31;58477;48.072;11.970;2023-04-06T01:02:11;-2.49;84.35
65207;SHT31;58477;48.072;11.970;2023-04-06T01:04:43;-2.69;84.92
65207;SHT31;58477;48.072;11.970;2023-04-06T01:07:16;-2.65;85.55
65207;SHT31;58477;48.072;11.970;2023-04-06T01:09:53;-2.69;85.82
65207;SHT31;58477;48.072;11.970;2023-04-06T01:12:22;-2.66;85.77
65207;SHT31;58477;48.072;11.970;2023-04-06T01:14:48;-2.68;85.97
65207;SHT31;58477;48.072;11.970;2023-04-06T01:17:14;-2.35;85.32
65207;SHT31;58477;48.072;11.970;2023-04-06T01:19:41;-2.25;85.18
65207;SHT31;58477;48.072;11.970;2023-04-06T01:22:18;-2.30;85.22
65207;SHT31;58477;48.072;11.970;2023-04-06T01:24:51;-2.56;85.38
65207;SHT31;58477;48.072;11.970;2023-04-06T01:27:23;-2.59;85.62
65207;SHT31;58477;48.072;11.970;2023-04-06T01:30:15;-2.59;85.31
65207;SHT31;58477;48.072;11.970;2023-04-06T01:32:47;-2.20;84.54
65207;SHT31;58477;48.072;11.970;2023-04-06T01:35:15;-2.20;83.81
65207;SHT31;58477;48.072;11.970;2023-04-06T01:37:51;-2.37;84.03
65207;SHT31;58477;48.072;11.970;2023-04-06T01:40:23;-2.37;83.88
65207;SHT31;58477;48.072;11.970;2023-04-06T01:42:50;-2.56;83.91
65207;SHT31;58477;48.072;11.970;2023-04-06T01:45:26;-2.80;84.56
65207;SHT31;58477;48.072;11.970;2023-04-06T01:47:56;-2.78;84.94
65207;SHT31;58477;48.072;11.970;2023-04-06T01:50:24;-2.45;84.26
65207;SHT31;58477;48.072;11.970;2023-04-06T01:52:49;-2.38;83.82
65207;SHT31;58477;48.072;11.970;2023-04-06T01:55:16;-2.62;84.36
65207;SHT31;58477;48.072;11.970;2023-04-06T01:58:13;-2.89;85.10
65207;SHT31;58477;48.072;11.970;2023-04-06T02:00:40;-3.13;85.70
65207;SHT31;58477;48.072;11.970;2023-04-06T02:03:06;-3.26;86.17
65207;SHT31;58477;48.072;11.970;2023-04-06T02:05:33;-3.21;86.22
65207;SHT31;58477;48.072;11.970;2023-04-06T02:08:04;-3.20;86.15
65207;SHT31;58477;48.072;11.970;2023-04-06T02:10:34;-2.95;85.32
65207;SHT31;58477;48.072;11.970;2023-04-06T02:13:07;-2.76;85.08
65207;SHT31;58477;48.072;11.970;2023-04-06T02:15:33;-2.76;85.32
65207;SHT31;58477;48.072;11.970;2023-04-06T02:17:59;-2.66;86.02
65207;SHT31;58477;48.072;11.970;2023-04-06T02:20:25;-2.64;86.12
65207;SHT31;58477;48.072;11.970;2023-04-06T02:22:50;-2.73;86.37
65207;SHT31;58477;48.072;11.970;2023-04-06T02:25:16;-2.78;86.60
65207;SHT31;58477;48.072;11.970;2023-04-06T02:27:42;-2.86;86.92
65207;SHT31;58477;48.072;11.970;2023-04-06T02:30:07;-2.90;87.14
65207;SHT31;58477;48.072;11.970;2023-04-06T02:32:33;-2.82;87.28
65207;SHT31;58477;48.072;11.970;2023-04-06T02:34:59;-2.69;87.06
65207;SHT31;58477;48.072;11.970;2023-04-06T02:37:25;-2.69;86.83
65207;SHT31;58477;48.072;11.970;2023-04-06T02:39:51;-2.76;87.00
65207;SHT31;58477;48.072;11.970;2023-04-06T02:42:16;-2.93;87.23
65207;SHT31;58477;48.072;11.970;2023-04-06T02:44:44;-3.06;87.90
65207;SHT31;58477;48.072;11.970;2023-04-06T02:47:09;-3.17;88.01
65207;SHT31;58477;48.072;11.970;2023-04-06T02:49:37;-3.20;88.26
65207;SHT31;58477;48.072;11.970;2023-04-06T02:52:03;-3.26;88.30
65207;SHT31;58477;48.072;11.970;2023-04-06T02:54:32;-3.21;88.36
65207;SHT31;58477;48.072;11.970;2023-04-06T02:56:59;-3.26;88.31
65207;SHT31;58477;48.072;11.970;2023-04-06T02:59:33;-3.34;88.27
65207;SHT31;58477;48.072;11.970;2023-04-06T03:02:09;-3.17;88.15
65207;SHT31;58477;48.072;11.970;2023-04-06T03:04:35;-3.36;88.03
65207;SHT31;58477;48.072;11.970;2023-04-06T03:07:04;-3.40;88.21
65207;SHT31;58477;48.072;11.970;2023-04-06T03:09:36;-3.51;88.39
65207;SHT31;58477;48.072;11.970;2023-04-06T03:12:02;-3.68;88.65
65207;SHT31;58477;48.072;11.970;2023-04-06T03:14:30;-3.82;89.01
65207;SHT31;58477;48.072;11.970;2023-04-06T03:16:56;-3.89;89.09
65207;SHT31;58477;48.072;11.970;2023-04-06T03:19:23;-3.92;89.34
65207;SHT31;58477;48.072;11.970;2023-04-06T03:21:49;-3.88;89.35
65207;SHT31;58477;48.072;11.970;2023-04-06T03:24:16;-4.02;89.58
65207;SHT31;58477;48.072;11.970;2023-04-06T03:26:42;-4.01;89.73
65207;SHT31;58477;48.072;11.970;2023-04-06T03:29:08;-3.99;89.66
65207;SHT31;58477;48.072;11.970;2023-04-06T03:31:34;-3.89;89.27
65207;SHT31;58477;48.072;11.970;2023-04-06T03:34:06;-3.82;88.69
65207;SHT31;58477;48.072;11.970;2023-04-06T03:36:34;-3.88;88.64
65207;SHT31;58477;48.072;11.970;2023-04-06T03:39:01;-3.88;88.71
65207;SHT31;58477;48.072;11.970;2023-04-06T03:41:30;-4.05;89.03
65207;SHT31;58477;48.072;11.970;2023-04-06T03:44:09;-3.98;89.15
65207;SHT31;58477;48.072;11.970;2023-04-06T03:46:36;-3.68;88.27
65207;SHT31;58477;48.072;11.970;2023-04-06T03:49:01;-3.64;88.10
65207;SHT31;58477;48.072;11.970;2023-04-06T03:51:28;-3.81;88.43
65207;SHT31;58477;48.072;11.970;2023-04-06T03:53:53;-3.81;88.75
65207;SHT31;58477;48.072;11.970;2023-04-06T03:56:19;-3.82;89.23
65207;SHT31;58477;48.072;11.970;2023-04-06T03:58:45;-3.67;88.15
65207;SHT31;58477;48.072;11.970;2023-04-06T04:01:14;-3.61;87.85
65207;SHT31;58477;48.072;11.970;2023-04-06T04:03:40;-3.63;88.25
65207;SHT31;58477;48.072;11.970;2023-04-06T04:06:05;-3.48;88.44
65207;SHT31;58477;48.072;11.970;2023-04-06T04:08:31;-3.40;88.38
65207;SHT31;58477;48.072;11.970;2023-04-06T04:10:56;-3.40;87.99
65207;SHT31;58477;48.072;11.970;2023-04-06T04:13:22;-3.24;87.73
65207;SHT31;58477;48.072;11.970;2023-04-06T04:15:49;-3.27;87.14
65207;SHT31;58477;48.072;11.970;2023-04-06T04:18:15;-3.21;86.71
65207;SHT31;58477;48.072;11.970;2023-04-06T04:20:40;-3.17;87.00
65207;SHT31;58477;48.072;11.970;2023-04-06T04:23:08;-2.97;86.16
65207;SHT31;58477;48.072;11.970;2023-04-06T04:25:34;-3.06;86.12
65207;SHT31;58477;48.072;11.970;2023-04-06T04:28:00;-3.32;86.34
65207;SHT31;58477;48.072;11.970;2023-04-06T04:30:25;-3.29;87.05
65207;SHT31;58477;48.072;11.970;2023-04-06T04:32:51;-3.10;86.67
65207;SHT31;58477;48.072;11.970;2023-04-06T04:35:19;-3.04;86.34
65207;SHT31;58477;48.072;11.970;2023-04-06T04:37:45;-3.13;86.24
65207;SHT31;58477;48.072;11.970;2023-04-06T04:40:11;-3.16;86.36
65207;SHT31;58477;48.072;11.970;2023-04-06T04:42:46;-3.13;86.01
65207;SHT31;58477;48.072;11.970;2023-04-06T04:45:18;-3.14;86.16
65207;SHT31;58477;48.072;11.970;2023-04-06T04:47:44;-3.26;86.21
65207;SHT31;58477;48.072;11.970;2023-04-06T04:50:12;-3.12;86.03
65207;SHT31;58477;48.072;11.970;2023-04-06T04:52:41;-3.24;85.79
65207;SHT31;58477;48.072;11.970;2023-04-06T04:55:16;-3.29;86.24
65207;SHT31;58477;48.072;11.970;2023-04-06T04:57:45;-3.37;86.23
65207;SHT31;58477;48.072;11.970;2023-04-06T05:00:11;-3.26;86.24
65207;SHT31;58477;48.072;11.970;2023-04-06T05:02:40;-3.17;86.04
65207;SHT31;58477;48.072;11.970;2023-04-06T05:05:22;-2.96;85.97
65207;SHT31;58477;48.072;11.970;2023-04-06T05:07:49;-2.72;85.20
65207;SHT31;58477;48.072;11.970;2023-04-06T05:10:25;-2.58;84.74
65207;SHT31;58477;48.072;11.970;2023-04-06T05:12:55;-2.46;84.76
65207;SHT31;58477;48.072;11.970;2023-04-06T05:15:20;-2.49;84.78
65207;SHT31;58477;48.072;11.970;2023-04-06T05:17:50;-2.64;85.24
65207;SHT31;58477;48.072;11.970;2023-04-06T05:20:20;-2.76;85.49
65207;SHT31;58477;48.072;11.970;2023-04-06T05:22:48;-2.83;85.76
65207;SHT31;58477;48.072;11.970;2023-04-06T05:25:14;-2.88;86.08
65207;SHT31;58477;48.072;11.970;2023-04-06T05:27:41;-2.78;86.14
65207;SHT31;58477;48.072;11.970;2023-04-06T05:30:17;-2.59;86.34
65207;SHT31;58477;48.072;11.970;2023-04-06T05:32:45;-1.80;85.65
65207;SHT31;58477;48.072;11.970;2023-04-06T05:35:11;-0.94;81.48
65207;SHT31;58477;48.072;11.970;2023-04-06T05:37:38;-0.09;79.64
65207;SHT31;58477;48.072;11.970;2023-04-06T05:40:05;0.85;76.09
65207;SHT31;58477;48.072;11.970;2023-04-06T05:42:40;1.60;73.64
65207;SHT31;58477;48.072;11.970;2023-04-06T05:45:09;1.78;71.01
65207;SHT31;58477;48.072;11.970;2023-04-06T05:47:37;2.77;69.38
65207;SHT31;58477;48.072;11.970;2023-04-06T05:50:14;3.07;67.82
65207;SHT31;58477;48.072;11.970;2023-04-06T05:52:39;3.48;66.97
65207;SHT31;58477;48.072;11.970;2023-04-06T05:55:11;3.88;65.71
65207;SHT31;58477;48.072;11.970;2023-04-06T05:57:39;4.03;66.45
65207;SHT31;58477;48.072;11.970;2023-04-06T06:00:05;3.51;66.91
65207;SHT31;58477;48.072;11.970;2023-04-06T06:02:48;4.06;66.75
65207;SHT31;58477;48.072;11.970;2023-04-06T06:05:18;4.43;63.24
65207;SHT31;58477;48.072;11.970;2023-04-06T06:07:45;4.76;63.49
65207;SHT31;58477;48.072;11.970;2023-04-06T06:10:10;4.52;63.45
65207;SHT31;58477;48.072;11.970;2023-04-06T06:12:36;4.26;64.00
65207;SHT31;58477;48.072;11.970;2023-04-06T06:15:02;4.09;64.70
65207;SHT31;58477;48.072;11.970;2023-04-06T06:17:31;4.37;64.35
65207;SHT31;58477;48.072;11.970;2023-04-06T06:19:56;4.50;64.65
65207;SHT31;58477;48.072;11.970;2023-04-06T06:22:22;4.67;63.77
65207;SHT31;58477;48.072;11.970;2023-04-06T06:24:48;4.26;63.75
65207;SHT31;58477;48.072;11.970;2023-04-06T06:27:17;5.10;62.18
65207;SHT31;58477;48.072;11.970;2023-04-06T06:29:42;5.36;62.55
65207;SHT31;58477;48.072;11.970;2023-04-06T06:32:09;6.02;60.78
65207;SHT31;58477;48.072;11.970;2023-04-06T06:34:36;6.13;59.09
65207;SHT31;58477;48.072;11.970;2023-04-06T06:37:03;5.44;61.82
65207;SHT31;58477;48.072;11.970;2023-04-06T06:39:29;5.38;62.12
65207;SHT31;58477;48.072;11.970;2023-04-06T06:41:55;5.63;61.96
65207;SHT31;58477;48.072;11.970;2023-04-06T06:44:41;6.16;61.60
65207;SHT31;58477;48.072;11.970;2023-04-06T06:47:06;5.54;62.63
65207;SHT31;58477;48.072;11.970;2023-04-06T06:49:32;4.79;64.89
65207;SHT31;58477;48.072;11.970;2023-04-06T06:51:57;5.39;64.94
65207;SHT31;58477;48.072;11.970;2023-04-06T06:54:22;6.61;64.06
65207;SHT31;58477;48.072;11.970;2023-04-06T06:56:49;6.94;63.33
65207;SHT31;58477;48.072;11.970;2023-04-06T06:59:14;7.28;61.16
65207;SHT31;58477;48.072;11.970;2023-04-06T07:01:41;7.05;60.78
65207;SHT31;58477;48.072;11.970;2023-04-06T07:04:07;6.63;60.90
65207;SHT31;58477;48.072;11.970;2023-04-06T07:06:37;7.56;59.55
65207;SHT31;58477;48.072;11.970;2023-04-06T07:09:03;7.66;58.12
65207;SHT31;58477;48.072;11.970;2023-04-06T07:11:29;7.73;58.44
65207;SHT31;58477;48.072;11.970;2023-04-06T07:13:54;7.01;60.18
65207;SHT31;58477;48.072;11.970;2023-04-06T07:16:20;7.58;59.18
65207;SHT31;58477;48.072;11.970;2023-04-06T07:18:46;8.24;58.88
65207;SHT31;58477;48.072;11.970;2023-04-06T07:21:11;6.60;60.25
65207;SHT31;58477;48.072;11.970;2023-04-06T07:23:37;7.69;59.00
65207;SHT31;58477;48.072;11.970;2023-04-06T07:26:03;7.56;59.70
65207;SHT31;58477;48.072;11.970;2023-04-06T07:28:29;7.67;59.00
65207;SHT31;58477;48.072;11.970;2023-04-06T07:30:55;8.89;55.96
65207;SHT31;58477;48.072;11.970;2023-04-06T07:33:21;8.67;57.83
65207;SHT31;58477;48.072;11.970;2023-04-06T07:35:46;9.00;57.07
65207;SHT31;58477;48.072;11.970;2023-04-06T07:38:13;8.71;55.01
65207;SHT31;58477;48.072;11.970;2023-04-06T07:40:40;8.57;57.85
65207;SHT31;58477;48.072;11.970;2023-04-06T07:43:05;9.03;56.91
65207;SHT31;58477;48.072;11.970;2023-04-06T07:45:31;9.32;55.82
65207;SHT31;58477;48.072;11.970;2023-04-06T07:47:57;10.15;53.30
65207;SHT31;58477;48.072;11.970;2023-04-06T07:50:25;10.72;51.99
65207;SHT31;58477;48.072;11.970;2023-04-06T07:52:51;11.97;49.97
65207;SHT31;58477;48.072;11.970;2023-04-06T07:55:18;10.25;52.12
65207;SHT31;58477;48.072;11.970;2023-04-06T07:57:44;10.93;51.31
65207;SHT31;58477;48.072;11.970;2023-04-06T08:00:09;10.15;52.65
65207;SHT31;58477;48.072;11.970;2023-04-06T08:02:38;11.05;52.75
65207;SHT31;58477;48.072;11.970;2023-04-06T08:05:04;10.69;52.52
65207;SHT31;58477;48.072;11.970;2023-04-06T08:07:29;10.88;53.13
65207;SHT31;58477;48.072;11.970;2023-04-06T08:09:55;11.22;51.56
65207;SHT31;58477;48.072;11.970;2023-04-06T08:12:20;11.34;51.11
65207;SHT31;58477;48.072;11.970;2023-04-06T08:14:45;11.68;49.88
65207;SHT31;58477;48.072;11.970;2023-04-06T08:17:11;11.43;49.54
65207;SHT31;58477;48.072;11.970;2023-04-06T08:19:36;11.94;48.86
65207;SHT31;58477;48.072;11.970;2023-04-06T08:22:02;13.43;46.50
65207;SHT31;58477;48.072;11.970;2023-04-06T08:24:27;12.67;46.98
65207;SHT31;58477;48.072;11.970;2023-04-06T08:26:53;12.65;46.49
65207;SHT31;58477;48.072;11.970;2023-04-06T08:29:18;12.95;46.81
65207;SHT31;58477;48.072;11.970;2023-04-06T08:31:44;13.04;46.67
65207;SHT31;58477;48.072;11.970;2023-04-06T08:34:09;13.61;43.78
65207;SHT31;58477;48.072;11.970;2023-04-06T08:36:35;13.21;46.92
65207;SHT31;58477;48.072;11.970;2023-04-06T08:39:00;13.31;46.47
65207;SHT31;58477;48.072;11.970;2023-04-06T08:41:27;12.92;45.87
65207;SHT31;58477;48.072;11.970;2023-04-06T08:43:56;11.54;46.15
65207;SHT31;58477;48.072;11.970;2023-04-06T08:46:23;12.89;45.24
65207;SHT31;58477;48.072;11.970;2023-04-06T08:48:54;12.39;46.51
65207;SHT31;58477;48.072;11.970;2023-04-06T08:51:22;12.39;47.46
65207;SHT31;58477;48.072;11.970;2023-04-06T08:53:49;13.70;42.73
65207;SHT31;58477;48.072;11.970;2023-04-06T08:56:15;14.08;42.10
65207;SHT31;58477;48.072;11.970;2023-04-06T08:58:41;13.98;43.43
65207;SHT31;58477;48.072;11.970;2023-04-06T09:01:08;13.91;44.48
65207;SHT31;58477;48.072;11.970;2023-04-06T09:03:39;13.81;44.47
65207;SHT31;58477;48.072;11.970;2023-04-06T09:06:06;13.85;41.12
65207;SHT31;58477;48.072;11.970;2023-04-06T09:08:35;13.04;43.06
65207;SHT31;58477;48.072;11.970;2023-04-06T09:11:02;13.55;42.31
65207;SHT31;58477;48.072;11.970;2023-04-06T09:13:28;14.00;44.23
65207;SHT31;58477;48.072;11.970;2023-04-06T09:16:01;14.38;39.77
65207;SHT31;58477;48.072;11.970;2023-04-06T09:18:31;13.94;39.22
65207;SHT31;58477;48.072;11.970;2023-04-06T09:21:06;14.33;40.20
65207;SHT31;58477;48.072;11.970;2023-04-06T09:23:32;14.00;40.17
65207;SHT31;58477;48.072;11.970;2023-04-06T09:26:11;14.45;38.27
65207;SHT31;58477;48.072;11.970;2023-04-06T09:28:50;14.84;39.95
65207;SHT31;58477;48.072;11.970;2023-04-06T09:31:24;14.02;40.30
65207;SHT31;58477;48.072;11.970;2023-04-06T09:33:50;15.31;39.80
65207;SHT31;58477;48.072;11.970;2023-04-06T09:36:17;14.77;38.71
65207;SHT31;58477;48.072;11.970;2023-04-06T09:38:59;15.41;37.90
65207;SHT31;58477;48.072;11.970;2023-04-06T09:41:25;15.30;36.79
65207;SHT31;58477;48.072;11.970;2023-04-06T09:44:07;14.26;38.25
65207;SHT31;58477;48.072;11.970;2023-04-06T09:46:35;14.97;38.85
65207;SHT31;58477;48.072;11.970;2023-04-06T09:49:04;13.41;41.48
65207;SHT31;58477;48.072;11.970;2023-04-06T09:51:31;13.92;39.95
65207;SHT31;58477;48.072;11.970;2023-04-06T09:53:59;14.19;39.43
65207;SHT31;58477;48.072;11.970;2023-04-06T09:56:31;15.26;39.22
65207;SHT31;58477;48.072;11.970;2023-04-06T09:59:02;14.69;40.86
65207;SHT31;58477;48.072;11.970;2023-04-06T10:01:32;15.08;39.53
65207;SHT31;58477;48.072;11.970;2023-04-06T10:04:09;14.76;36.37
65207;SHT31;58477;48.072;11.970;2023-04-06T10:06:37;13.72;39.63
65207;SHT31;58477;48.072;11.970;2023-04-06T10:09:04;14.40;40.11
65207;SHT31;58477;48.072;11.970;2023-04-06T10:11:33;14.18;39.35
65207;SHT31;58477;48.072;11.970;2023-04-06T10:14:00;14.56;38.46
65207;SHT31;58477;48.072;11.970;2023-04-06T10:16:26;14.72;40.51
65207;SHT31;58477;48.072;11.970;2023-04-06T10:18:58;15.04;40.15
65207;SHT31;58477;48.072;11.970;2023-04-06T10:21:26;15.28;39.05
65207;SHT31;58477;48.072;11.970;2023-04-06T10:23:58;14.12;40.08
65207;SHT31;58477;48.072;11.970;2023-04-06T10:26:24;15.92;36.89
65207;SHT31;58477;48.072;11.970;2023-04-06T10:28:50;15.71;36.35
65207;SHT31;58477;48.072;11.970;2023-04-06T10:31:24;16.38;36.51
65207;SHT31;58477;48.072;11.970;2023-04-06T10:34:00;16.08;34.68
65207;SHT31;58477;48.072;11.970;2023-04-06T10:36:27;16.73;34.59
65207;SHT31;58477;48.072;11.970;2023-04-06T10:38:55;14.15;36.72
65207;SHT31;58477;48.072;11.970;2023-04-06T10:41:22;14.18;36.75
65207;SHT31;58477;48.072;11.970;2023-04-06T10:43:55;13.24;39.78
65207;SHT31;58477;48.072;11.970;2023-04-06T10:46:32;15.38;39.36
65207;SHT31;58477;48.072;11.970;2023-04-06T10:48:58;15.64;38.98
65207;SHT31;58477;48.072;11.970;2023-04-06T10:51:28;14.73;37.60
65207;SHT31;58477;48.072;11.970;2023-04-06T10:53:54;13.60;40.51
65207;SHT31;58477;48.072;11.970;2023-04-06T10:56:24;14.32;38.81
65207;SHT31;58477;48.072;11.970;2023-04-06T10:58:55;13.21;38.69
65207;SHT31;58477;48.072;11.970;2023-04-06T11:01:24;13.46;40.90
65207;SHT31;58477;48.072;11.970;2023-04-06T11:03:56;15.71;37.51
65207;SHT31;58477;48.072;11.970;2023-04-06T11:06:25;16.59;38.82
65207;SHT31;58477;48.072;11.970;2023-04-06T11:08:53;16.20;37.04
65207;SHT31;58477;48.072;11.970;2023-04-06T11:11:20;17.23;38.06
65207;SHT31;58477;48.072;11.970;2023-04-06T11:13:57;17.92;35.42
65207;SHT31;58477;48.072;11.970;2023-04-06T11:16:24;18.66;33.87
65207;SHT31;58477;48.072;11.970;2023-04-06T11:18:57;16.29;37.32
65207;SHT31;58477;48.072;11.970;2023-04-06T11:26:40;14.62;38.98
65207;SHT31;58477;48.072;11.970;2023-04-06T11:29:06;14.73;38.80
65207;SHT31;58477;48.072;11.970;2023-04-06T11:31:38;14.25;39.50
65207;SHT31;58477;48.072;11.970;2023-04-06T11:34:09;13.46;40.62
65207;SHT31;58477;48.072;11.970;2023-04-06T11:36:35;15.47;41.70
65207;SHT31;58477;48.072;11.970;2023-04-06T11:39:03;15.64;37.45
65207;SHT31;58477;48.072;11.970;2023-04-06T11:41:28;14.77;37.23
65207;SHT31;58477;48.072;11.970;2023-04-06T11:43:55;16.62;34.36
65207;SHT31;58477;48.072;11.970;2023-04-06T11:46:21;17.13;34.01
65207;SHT31;58477;48.072;11.970;2023-04-06T11:48:46;17.42;33.81
65207;SHT31;58477;48.072;11.970;2023-04-06T11:51:12;17.45;36.08
65207;SHT31;58477;48.072;11.970;2023-04-06T11:53:44;17.41;35.37
65207;SHT31;58477;48.072;11.970;2023-04-06T11:56:11;16.06;35.25
65207;SHT31;58477;48.072;11.970;2023-04-06T11:58:36;14.72;37.89
65207;SHT31;58477;48.072;11.970;2023-04-06T12:01:05;14.09;39.14
65207;SHT31;58477;48.072;11.970;2023-04-06T12:03:30;12.38;40.82
65207;SHT31;58477;48.072;11.970;2023-04-06T12:05:56;12.56;44.15
65207;SHT31;58477;48.072;11.970;2023-04-06T12:08:21;13.36;39.78
65207;SHT31;58477;48.072;11.970;2023-04-06T12:10:50;13.71;41.06
65207;SHT31;58477;48.072;11.970;2023-04-06T12:13:16;14.09;39.15
65207;SHT31;58477;48.072;11.970;2023-04-06T12:15:42;13.30;40.70
65207;SHT31;58477;48.072;11.970;2023-04-06T12:18:07;11.78;41.05
65207;SHT31;58477;48.072;11.970;2023-04-06T12:20:34;10.93;41.77
65207;SHT31;58477;48.072;11.970;2023-04-06T12:22:59;10.66;43.03
65207;SHT31;58477;48.072;11.970;2023-04-06T12:25:25;12.11;45.49
65207;SHT31;58477;48.072;11.970;2023-04-06T12:27:50;14.21;41.05
65207;SHT31;58477;48.072;11.970;2023-04-06T12:30:16;13.57;37.07
65207;SHT31;58477;48.072;11.970;2023-04-06T12:32:41;14.28;39.45
65207;SHT31;58477;48.072;11.970;2023-04-06T12:35:07;15.30;37.76
65207;SHT31;58477;48.072;11.970;2023-04-06T12:37:34;15.26;35.16
65207;SHT31;58477;48.072;11.970;2023-04-06T12:39:59;15.43;36.45
65207;SHT31;58477;48.072;11.970;2023-04-06T12:42:25;15.40;34.75
65207;SHT31;58477;48.072;11.970;2023-04-06T12:44:51;15.55;34.86
65207;SHT31;58477;48.072;11.970;2023-04-06T12:47:17;13.95;37.05
65207;SHT31;58477;48.072;11.970;2023-04-06T12:49:43;14.22;39.97
65207;SHT31;58477;48.072;11.970;2023-04-06T12:52:09;14.25;40.85
65207;SHT31;58477;48.072;11.970;2023-04-06T12:54:34;14.32;37.68
65207;SHT31;58477;48.072;11.970;2023-04-06T12:57:00;13.50;37.96
65207;SHT31;58477;48.072;11.970;2023-04-06T12:59:26;13.27;40.14
65207;SHT31;58477;48.072;11.970;2023-04-06T13:01:52;13.54;39.25
65207;SHT31;58477;48.072;11.970;2023-04-06T13:04:17;13.06;39.76
65207;SHT31;58477;48.072;11.970;2023-04-06T13:06:43;11.71;42.10
65207;SHT31;58477;48.072;11.970;2023-04-06T13:09:08;11.54;42.58
65207;SHT31;58477;48.072;11.970;2023-04-06T13:11:34;11.06;43.75
65207;SHT31;58477;48.072;11.970;2023-04-06T13:13:59;11.71;43.95
65207;SHT31;58477;48.072;11.970;2023-04-06T13:16:25;11.05;44.29
65207;SHT31;58477;48.072;11.970;2023-04-06T13:18:50;10.41;44.59
65207;SHT31;58477;48.072;11.970;2023-04-06T13:21:16;10.55;43.82
65207;SHT31;58477;48.072;11.970;2023-04-06T13:23:42;10.72;43.65
65207;SHT31;58477;48.072;11.970;2023-04-06T13:26:07;10.69;43.51
65207;SHT31;58477;48.072;11.970;2023-04-06T13:28:34;11.10;43.40
65207;SHT31;58477;48.072;11.970;2023-04-06T13:31:01;11.19;42.90
65207;SHT31;58477;48.072;11.970;2023-04-06T13:33:28;11.19;42.46
65207;SHT31;58477;48.072;11.970;2023-04-06T13:35:54;10.75;42.56
65207;SHT31;58477;48.072;11.970;2023-04-06T13:38:19;11.20;42.77
65207;SHT31;58477;48.072;11.970;2023-04-06T13:40:45;11.40;42.43
65207;SHT31;58477;48.072;11.970;2023-04-06T13:43:11;11.82;40.59
65207;SHT31;58477;48.072;11.970;2023-04-06T13:45:37;12.02;41.43
65207;SHT31;58477;48.072;11.970;2023-04-06T13:48:03;12.57;42.39
65207;SHT31;58477;48.072;11.970;2023-04-06T13:50:29;12.76;40.14
65207;SHT31;58477;48.072;11.970;2023-04-06T13:52:55;12.36;39.95
65207;SHT31;58477;48.072;11.970;2023-04-06T13:55:21;12.52;41.05
65207;SHT31;58477;48.072;11.970;2023-04-06T13:57:46;12.21;42.59
65207;SHT31;58477;48.072;11.970;2023-04-06T14:00:12;11.84;41.54
65207;SHT31;58477;48.072;11.970;2023-04-06T14:02:40;11.80;41.90
65207;SHT31;58477;48.072;11.970;2023-04-06T14:05:05;12.42;40.80
65207;SHT31;58477;48.072;11.970;2023-04-06T14:07:31;11.97;42.24
65207;SHT31;58477;48.072;11.970;2023-04-06T14:09:56;11.84;41.62
65207;SHT31;58477;48.072;11.970;2023-04-06T14:12:22;11.98;41.70
65207;SHT31;58477;48.072;11.970;2023-04-06T14:14:47;11.75;42.82
65207;SHT31;58477;48.072;11.970;2023-04-06T14:17:13;11.74;41.77
65207;SHT31;58477;48.072;11.970;2023-04-06T14:19:38;11.57;41.87
65207;SHT31;58477;48.072;11.970;2023-04-06T14:22:04;11.15;42.66
65207;SHT31;58477;48.072;11.970;2023-04-06T14:24:30;11.50;43.53
65207;SHT31;58477;48.072;11.970;2023-04-06T14:26:56;11.15;43.27
65207;SHT31;58477;48.072;11.970;2023-04-06T14:29:22;11.53;41.87
65207;SHT31;58477;48.072;11.970;2023-04-06T14:31:48;12.26;41.40
65207;SHT31;58477;48.072;11.970;2023-04-06T14:34:14;11.68;41.73
65207;SHT31;58477;48.072;11.970;2023-04-06T14:36:40;11.71;43.73
65207;SHT31;58477;48.072;11.970;2023-04-06T14:39:05;12.55;39.79
65207;SHT31;58477;48.072;11.970;2023-04-06T14:41:31;12.28;39.87
65207;SHT31;58477;48.072;11.970;2023-04-06T14:43:57;12.80;39.14
65207;SHT31;58477;48.072;11.970;2023-04-06T14:46:23;12.92;39.38
65207;SHT31;58477;48.072;11.970;2023-04-06T14:48:48;12.63;38.92
65207;SHT31;58477;48.072;11.970;2023-04-06T14:51:14;12.82;37.50
65207;SHT31;58477;48.072;11.970;2023-04-06T14:53:39;12.99;38.48
65207;SHT31;58477;48.072;11.970;2023-04-06T14:56:05;13.37;38.41
65207;SHT31;58477;48.072;11.970;2023-04-06T14:58:30;13.10;40.33
65207;SHT31;58477;48.072;11.970;2023-04-06T15:01:00;12.80;40.85
65207;SHT31;58477;48.072;11.970;2023-04-06T15:03:27;12.76;39.41
65207;SHT31;58477;48.072;11.970;2023-04-06T15:05:53;12.41;39.52
65207;SHT31;58477;48.072;11.970;2023-04-06T15:08:18;12.90;40.00
65207;SHT31;58477;48.072;11.970;2023-04-06T15:10:50;12.15;38.89
65207;SHT31;58477;48.072;11.970;2023-04-06T15:13:16;13.34;38.98
65207;SHT31;58477;48.072;11.970;2023-04-06T15:15:41;13.68;38.56
65207;SHT31;58477;48.072;11.970;2023-04-06T15:18:08;13.70;37.89
65207;SHT31;58477;48.072;11.970;2023-04-06T15:20:33;13.21;40.07
65207;SHT31;58477;48.072;11.970;2023-04-06T15:23:01;13.34;39.27
65207;SHT31;58477;48.072;11.970;2023-04-06T15:25:26;12.73;39.38